Time;durP1;ratioP1;P1;durP2;ratioP2;P2;SDS_P1;SDS_P2;PMS_P1;PMS_P2;Temp;Humidity;BMP_temperature;BMP_pressure;BME280_temperature;BME280_humidity;BME280_pressure;Samples;Min_cycle;Max_cycle;Signal;HPM_P1;HPM_P2
2024/02/29 00:01:18;;;;;;;18.80;13.10;;;14.90;74.60;;;;;;4222503;27;20063;-48
2024/02/29 00:03:59;;;;;;;20.25;13.05;;;14.90;74.70;;;;;;4206778;28;20054;-42
2024/02/29 00:06:41;;;;;;;19.17;12.27;;;14.90;74.70;;;;;;4221478;28;20104;-47
2024/02/29 00:09:22;;;;;;;17.98;12.88;;;14.90;74.70;;;;;;4204989;28;20188;-42
2024/02/29 00:12:03;;;;;;;17.55;12.43;;;14.90;75.00;;;;;;4220614;27;20063;-42
2024/02/29 00:14:46;;;;;;;16.30;12.38;;;14.90;74.90;;;;;;4220323;28;20038;-43
2024/02/29 00:17:27;;;;;;;19.42;12.25;;;14.80;74.90;;;;;;4212363;28;20541;-46
2024/02/29 00:20:10;;;;;;;18.70;12.93;;;14.80;74.90;;;;;;4222041;28;20151;-46
2024/02/29 00:22:52;;;;;;;17.17;12.15;;;14.80;75.00;;;;;;4206024;28;20059;-48
2024/02/29 00:25:33;;;;;;;18.67;12.40;;;14.80;75.30;;;;;;4214856;27;20058;-42
2024/02/29 00:28:14;;;;;;;15.10;11.35;;;14.80;75.40;;;;;;4204479;28;20105;-49
2024/02/29 00:30:57;;;;;;;19.65;12.63;;;14.80;75.30;;;;;;4213993;28;20050;-42
2024/02/29 00:33:37;;;;;;;18.88;12.57;;;14.80;76.20;;;;;;4205075;28;20100;-42
2024/02/29 00:36:19;;;;;;;17.42;12.32;;;14.80;75.30;;;;;;4220212;27;20058;-46
2024/02/29 00:39:00;;;;;;;16.45;11.48;;;14.70;75.10;;;;;;4221708;28;20170;-41
2024/02/29 00:41:45;;;;;;;18.75;11.88;;;14.70;75.10;;;;;;4204059;27;20055;-50
2024/02/29 00:44:26;;;;;;;17.77;11.30;;;14.70;75.30;;;;;;4189145;28;20541;-41
2024/02/29 00:47:09;;;;;;;15.55;10.55;;;14.70;75.30;;;;;;4187363;28;20063;-46
2024/02/29 00:49:49;;;;;;;15.07;11.25;;;14.70;75.30;;;;;;4202148;28;20050;-41
2024/02/29 00:52:30;;;;;;;15.95;11.00;;;14.70;75.20;;;;;;4187335;28;20047;-41
2024/02/29 00:55:12;;;;;;;16.75;11.57;;;14.60;75.30;;;;;;4197685;28;20051;-41
2024/02/29 00:57:53;;;;;;;14.02;10.15;;;14.70;76.80;;;;;;4208523;27;20047;-46
2024/02/29 01:00:34;;;;;;;14.02;10.25;;;14.70;76.80;;;;;;4203824;28;20150;-46
2024/02/29 01:03:17;;;;;;;13.60;10.23;;;14.80;76.60;;;;;;4204179;28;20051;-46
2024/02/29 01:05:57;;;;;;;16.40;10.40;;;14.80;76.60;;;;;;4205544;28;20054;-46
2024/02/29 01:08:38;;;;;;;15.70;9.65;;;14.80;76.40;;;;;;4210108;28;20051;-41
2024/02/29 01:11:20;;;;;;;14.25;9.75;;;14.80;76.20;;;;;;4223689;27;20042;-41
2024/02/29 01:14:02;;;;;;;13.35;9.40;;;14.80;76.30;;;;;;4203730;28;20178;-41
2024/02/29 01:16:44;;;;;;;16.70;10.20;;;14.80;76.40;;;;;;4220762;28;20100;-46
2024/02/29 01:19:26;;;;;;;14.18;10.50;;;14.90;76.80;;;;;;4203382;28;20055;-42
2024/02/29 01:22:07;;;;;;;16.20;9.27;;;14.90;76.80;;;;;;4204859;28;20051;-47
2024/02/29 01:24:48;;;;;;;14.93;10.05;;;14.90;76.40;;;;;;4211365;27;20077;-47
2024/02/29 01:27:29;;;;;;;12.63;9.77;;;15.00;76.30;;;;;;4197249;28;20200;-46
2024/02/29 01:30:11;;;;;;;15.30;10.13;;;15.00;76.20;;;;;;4194485;28;20059;-46
2024/02/29 01:32:52;;;;;;;15.93;10.00;;;15.00;76.20;;;;;;4202586;28;20051;-43
2024/02/29 01:35:34;;;;;;;15.25;10.30;;;15.00;76.40;;;;;;4204019;28;20059;-42
2024/02/29 01:38:15;;;;;;;16.10;10.38;;;15.10;76.40;;;;;;4203544;28;20059;-42
2024/02/29 01:40:56;;;;;;;14.68;9.60;;;15.10;76.00;;;;;;4203620;28;20500;-46
2024/02/29 01:43:38;;;;;;;14.35;9.73;;;15.20;76.00;;;;;;4195476;27;20070;-41
2024/02/29 01:46:19;;;;;;;14.60;10.57;;;15.30;76.00;;;;;;4235928;27;20509;-42
2024/02/29 01:49:02;;;;;;;13.68;9.65;;;15.30;75.70;;;;;;4237617;27;20188;-42
2024/02/29 01:51:45;;;;;;;16.20;10.27;;;15.40;75.30;;;;;;4236498;27;20050;-42
2024/02/29 01:54:27;;;;;;;15.10;9.07;;;15.50;75.70;;;;;;4237182;27;20694;-41
2024/02/29 01:57:09;;;;;;;17.25;9.77;;;15.50;75.00;;;;;;4188346;28;20078;-41
2024/02/29 01:59:50;;;;;;;;;;;15.50;74.80;;;;;;4214092;27;21541;-47
2024/02/29 02:02:31;;;;;;;13.93;10.10;;;15.50;74.80;;;;;;4236436;27;19930;-46
2024/02/29 02:05:12;;;;;;;13.55;9.40;;;15.50;75.00;;;;;;4236534;27;20109;-43
2024/02/29 02:07:54;;;;;;;14.23;9.07;;;15.50;75.10;;;;;;4220840;27;20055;-42
2024/02/29 02:10:35;;;;;;;13.40;9.35;;;15.50;75.00;;;;;;4202587;28;20408;-41
2024/02/29 02:13:16;;;;;;;15.48;10.10;;;15.50;75.00;;;;;;4208887;27;20051;-45
2024/02/29 02:15:58;;;;;;;16.52;9.75;;;15.50;74.80;;;;;;4205809;28;20412;-41
2024/02/29 02:18:39;;;;;;;14.38;9.85;;;15.40;75.00;;;;;;4202946;28;20065;-43
2024/02/29 02:21:21;;;;;;;12.30;9.57;;;15.50;75.00;;;;;;4221569;27;20403;-42
2024/02/29 02:24:02;;;;;;;15.52;10.55;;;15.50;74.80;;;;;;4236830;27;20062;-41
2024/02/29 02:26:43;;;;;;;14.00;9.15;;;15.50;74.80;;;;;;4237245;27;20058;-46
2024/02/29 02:29:25;;;;;;;16.02;10.35;;;15.50;74.80;;;;;;4236128;27;20403;-47
2024/02/29 02:32:06;;;;;;;17.88;10.07;;;15.50;74.70;;;;;;4220597;27;20118;-45
2024/02/29 02:34:47;;;;;;;11.88;9.55;;;15.50;74.90;;;;;;4187767;28;20097;-43
2024/02/29 02:37:30;;;;;;;14.65;9.50;;;15.50;74.80;;;;;;4192707;28;20515;-41
2024/02/29 02:40:12;;;;;;;18.75;10.90;;;15.50;74.40;;;;;;4198587;28;20117;-41
2024/02/29 02:42:53;;;;;;;15.75;10.10;;;15.50;74.30;;;;;;4220011;28;20349;-45
2024/02/29 02:45:35;;;;;;;15.32;9.93;;;15.50;74.30;;;;;;4220334;28;20188;-42
2024/02/29 02:48:16;;;;;;;14.00;10.32;;;15.50;74.10;;;;;;4205284;28;20051;-45
2024/02/29 02:50:57;;;;;;;;;;;15.50;74.10;;;;;;4188980;28;20181;-42
2024/02/29 02:53:39;;;;;;;16.55;11.13;;;15.50;74.30;;;;;;4188650;28;19931;-42
2024/02/29 02:56:20;;;;;;;14.23;9.77;;;15.40;74.50;;;;;;4208067;27;20051;-46
2024/02/29 02:59:01;;;;;;;13.88;9.13;;;15.30;74.50;;;;;;4200625;28;20056;-42
2024/02/29 03:01:42;;;;;;;15.00;10.38;;;15.30;74.60;;;;;;4188996;28;20058;-46
2024/02/29 03:04:23;;;;;;;14.07;10.05;;;15.20;74.30;;;;;;4216796;28;20519;-45
2024/02/29 03:07:04;;;;;;;13.23;9.98;;;15.20;75.00;;;;;;4220895;27;20058;-42
2024/02/29 03:09:47;;;;;;;12.85;9.38;;;15.30;74.90;;;;;;4221410;28;20050;-42
2024/02/29 03:12:28;;;;;;;15.15;10.30;;;15.30;74.10;;;;;;4221341;28;20499;-46
2024/02/29 03:15:10;;;;;;;13.45;8.55;;;15.40;74.00;;;;;;4213807;28;20407;-42
2024/02/29 03:17:55;;;;;;;16.30;9.00;;;15.40;73.70;;;;;;4182732;28;20073;-42
2024/02/29 03:20:39;;;;;;;18.02;10.02;;;15.50;73.60;;;;;;4213304;27;20058;-48
2024/02/29 03:23:20;;;;;;;14.98;10.48;;;15.50;73.30;;;;;;4238027;27;20657;-46
2024/02/29 03:26:05;;;;;;;12.53;9.77;;;15.50;73.40;;;;;;4233588;27;20058;-46
2024/02/29 03:28:46;;;;;;;14.02;9.32;;;15.60;73.00;;;;;;4221717;27;20760;-41
2024/02/29 03:31:27;;;;;;;12.23;8.70;;;15.70;72.60;;;;;;4193503;28;20059;-45
2024/02/29 03:34:08;;;;;;;13.48;8.13;;;15.70;72.50;;;;;;4207465;27;20055;-47
2024/02/29 03:36:49;;;;;;;13.07;9.98;;;15.80;72.40;;;;;;4206831;28;20063;-46
2024/02/29 03:39:30;;;;;;;12.32;8.05;;;15.80;72.10;;;;;;4230340;27;20055;-47
2024/02/29 03:42:13;;;;;;;13.60;8.02;;;15.80;72.10;;;;;;4191028;28;20059;-42
2024/02/29 03:44:54;;;;;;;12.00;8.52;;;15.80;71.80;;;;;;4188736;28;20129;-48
2024/02/29 03:47:37;;;;;;;12.80;8.52;;;15.80;71.70;;;;;;4197779;28;20051;-46
2024/02/29 03:50:24;;;;;;;11.43;8.32;;;15.80;71.70;;;;;;4189985;28;20127;-42
2024/02/29 03:53:05;;;;;;;12.75;8.45;;;15.90;71.80;;;;;;4190278;28;20094;-46
2024/02/29 03:55:48;;;;;;;14.13;8.25;;;15.80;71.30;;;;;;4203056;28;20078;-44
2024/02/29 03:58:30;;;;;;;13.20;7.75;;;15.80;71.70;;;;;;4239281;27;20062;-41
2024/02/29 04:01:11;;;;;;;12.10;7.55;;;15.80;71.60;;;;;;4239353;27;20070;-41
2024/02/29 04:03:52;;;;;;;;;;;15.80;71.40;;;;;;4205732;27;20082;-43
2024/02/29 04:06:32;;;;;;;12.77;7.68;;;15.80;71.70;;;;;;4205290;28;19988;-42
2024/02/29 04:09:14;;;;;;;12.20;7.80;;;15.80;71.50;;;;;;4226176;27;20695;-43
2024/02/29 04:11:55;;;;;;;8.75;6.95;;;15.80;71.70;;;;;;4204403;28;20046;-45
2024/02/29 04:14:38;;;;;;;14.57;8.05;;;15.80;71.50;;;;;;4218851;28;20116;-42
2024/02/29 04:17:19;;;;;;;11.00;7.90;;;15.80;71.70;;;;;;4222566;27;20055;-41
2024/02/29 04:20:01;;;;;;;15.52;7.93;;;15.80;71.60;;;;;;4205122;28;20051;-41
2024/02/29 04:22:42;;;;;;;10.05;7.57;;;15.80;71.50;;;;;;4221823;27;20617;-49
2024/02/29 04:25:23;;;;;;;12.68;8.05;;;15.90;71.50;;;;;;4218837;27;20058;-45
2024/02/29 04:28:05;;;;;;;11.77;6.90;;;15.90;71.30;;;;;;4218168;27;20635;-42
2024/02/29 04:30:48;;;;;;;12.55;7.38;;;15.90;70.80;;;;;;4237100;27;20376;-41
2024/02/29 04:33:30;;;;;;;13.20;7.90;;;15.90;71.00;;;;;;4237188;27;20175;-42
2024/02/29 04:36:11;;;;;;;12.35;7.30;;;15.90;71.10;;;;;;4191536;27;20171;-41
2024/02/29 04:38:52;;;;;;;9.88;7.35;;;15.90;71.00;;;;;;4189433;28;20052;-44
2024/02/29 04:41:33;;;;;;;10.82;7.93;;;15.80;71.30;;;;;;4204748;27;20073;-50
2024/02/29 04:44:16;;;;;;;11.50;8.77;;;15.80;71.50;;;;;;4237200;27;20039;-41
2024/02/29 04:46:58;;;;;;;10.35;7.20;;;15.80;71.80;;;;;;4190598;28;20060;-41
2024/02/29 04:49:39;;;;;;;11.02;7.93;;;15.80;71.20;;;;;;4207946;27;20427;-41
2024/02/29 04:52:22;;;;;;;11.35;7.38;;;15.80;71.40;;;;;;4216568;27;20062;-45
2024/02/29 04:55:03;;;;;;;12.25;7.93;;;15.80;71.40;;;;;;4205087;27;20075;-41
2024/02/29 04:57:44;;;;;;;9.98;7.43;;;15.90;71.40;;;;;;4210264;27;20058;-47
2024/02/29 05:00:25;;;;;;;13.70;7.65;;;15.90;71.50;;;;;;4238143;27;20066;-42
2024/02/29 05:03:07;;;;;;;10.55;7.72;;;15.90;71.30;;;;;;4189507;28;20052;-45
2024/02/29 05:05:48;;;;;;;11.90;7.85;;;15.80;71.50;;;;;;4199423;28;20094;-46
2024/02/29 05:08:30;;;;;;;11.85;7.75;;;15.80;71.50;;;;;;4214587;27;20057;-46
2024/02/29 05:11:11;;;;;;;12.10;8.13;;;15.80;71.60;;;;;;4225640;27;20131;-42
2024/02/29 05:13:52;;;;;;;10.77;7.60;;;15.70;72.20;;;;;;4210834;27;20101;-43
2024/02/29 05:16:33;;;;;;;10.52;7.30;;;15.70;72.20;;;;;;4203849;28;20051;-42
2024/02/29 05:19:15;;;;;;;11.07;7.85;;;15.70;72.30;;;;;;4205325;28;20058;-45
2024/02/29 05:21:56;;;;;;;9.75;7.43;;;15.70;72.10;;;;;;4204070;28;20412;-45
2024/02/29 05:24:38;;;;;;;11.30;7.15;;;15.80;71.90;;;;;;4204308;28;20058;-46
2024/02/29 05:27:19;;;;;;;9.30;7.13;;;15.80;72.10;;;;;;4197411;28;20059;-42
2024/02/29 05:30:01;;;;;;;10.15;6.68;;;15.80;71.60;;;;;;4203961;28;20132;-42
2024/02/29 05:32:42;;;;;;;9.55;7.78;;;15.80;71.80;;;;;;4200574;28;20058;-42
2024/02/29 05:35:25;;;;;;;13.75;8.05;;;15.80;72.30;;;;;;4205456;28;20051;-45
2024/02/29 05:38:07;;;;;;;13.05;6.88;;;15.80;72.00;;;;;;4214844;27;20193;-41
2024/02/29 05:40:47;;;;;;;;;;;15.70;72.10;;;;;;4211485;27;20082;-46
2024/02/29 05:43:29;;;;;;;8.65;6.35;;;15.80;71.90;;;;;;4203608;28;20406;-41
2024/02/29 05:46:14;;;;;;;10.43;6.82;;;15.70;72.00;;;;;;4208074;27;20182;-49
2024/02/29 05:48:55;;;;;;;;;;;15.70;72.30;;;;;;4205525;28;20186;-42
2024/02/29 05:51:37;;;;;;;9.25;6.10;;;15.70;72.30;;;;;;4218242;28;19930;-48
2024/02/29 05:54:18;;;;;;;12.02;7.35;;;15.80;72.70;;;;;;4220695;28;20050;-45
2024/02/29 05:56:59;;;;;;;8.30;6.05;;;15.80;71.90;;;;;;4221216;28;20193;-44
2024/02/29 05:59:43;;;;;;;10.85;7.22;;;15.90;71.80;;;;;;4202421;28;20054;-47
2024/02/29 06:02:23;;;;;;;10.63;6.07;;;15.90;71.90;;;;;;4203278;28;20066;-51
2024/02/29 06:05:05;;;;;;;11.40;6.53;;;15.90;71.90;;;;;;4187561;28;20051;-50
2024/02/29 06:07:48;;;;;;;9.63;6.22;;;16.00;71.40;;;;;;4206338;28;20495;-47
2024/02/29 06:10:29;;;;;;;10.93;6.28;;;16.10;71.10;;;;;;4221364;27;20344;-47
2024/02/29 06:13:10;;;;;;;8.23;6.10;;;16.10;70.60;;;;;;4220003;27;20153;-47
2024/02/29 06:15:52;;;;;;;11.68;6.68;;;16.10;70.30;;;;;;4204345;28;20166;-44
2024/02/29 06:18:34;;;;;;;8.90;6.15;;;16.10;70.10;;;;;;4228788;27;20160;-44
2024/02/29 06:21:15;;;;;;;10.85;6.40;;;16.00;69.60;;;;;;4236790;27;20091;-43
2024/02/29 06:23:57;;;;;;;9.63;6.53;;;16.10;70.10;;;;;;4203495;28;20549;-40
2024/02/29 06:26:38;;;;;;;8.10;6.15;;;16.00;70.60;;;;;;4202921;28;20063;-41
2024/02/29 06:29:19;;;;;;;7.20;5.72;;;16.00;70.60;;;;;;4235578;27;20537;-45
2024/02/29 06:32:01;;;;;;;9.73;5.88;;;15.90;70.70;;;;;;4231039;27;20082;-41
2024/02/29 06:34:42;;;;;;;7.38;5.60;;;15.90;71.50;;;;;;4201605;28;20051;-45
2024/02/29 06:37:23;;;;;;;8.00;5.68;;;15.80;72.20;;;;;;4206464;28;20051;-44
2024/02/29 06:40:10;;;;;;;6.47;5.18;;;15.80;71.70;;;;;;4205922;28;20051;-44
2024/02/29 06:42:52;;;;;;;8.05;5.40;;;15.80;71.80;;;;;;4202464;28;20103;-44
2024/02/29 06:45:33;;;;;;;8.02;5.82;;;15.80;71.90;;;;;;4200159;28;20051;-45
2024/02/29 06:48:15;;;;;;;9.15;6.28;;;15.80;72.10;;;;;;4212614;27;20046;-43
2024/02/29 06:50:56;;;;;;;7.78;5.78;;;15.70;71.90;;;;;;4200905;28;20051;-42
2024/02/29 06:53:38;;;;;;;11.50;6.03;;;15.70;71.50;;;;;;4191933;28;20435;-43
2024/02/29 06:56:21;;;;;;;9.15;6.18;;;15.70;71.90;;;;;;4206267;28;20051;-45
2024/02/29 06:59:02;;;;;;;8.60;5.78;;;15.70;72.00;;;;;;4193860;28;20055;-43
2024/02/29 07:01:43;;;;;;;8.63;6.05;;;15.70;71.80;;;;;;4209087;28;20059;-45
2024/02/29 07:04:25;;;;;;;7.00;5.38;;;15.70;71.90;;;;;;4205144;28;20051;-43
2024/02/29 07:07:07;;;;;;;6.75;4.82;;;15.70;71.70;;;;;;4189952;28;20488;-45
2024/02/29 07:09:50;;;;;;;6.68;5.90;;;15.70;71.90;;;;;;4206386;28;20047;-43
2024/02/29 07:12:32;;;;;;;7.50;5.00;;;15.70;71.80;;;;;;4222686;27;20058;-47
2024/02/29 07:15:13;;;;;;;8.57;5.57;;;15.60;71.80;;;;;;4208381;28;20054;-45
2024/02/29 07:17:54;;;;;;;9.70;5.75;;;15.60;71.20;;;;;;4207258;28;20208;-45
2024/02/29 07:20:35;;;;;;;7.40;5.53;;;15.60;71.50;;;;;;4214270;27;20050;-42
2024/02/29 07:23:16;;;;;;;7.97;5.85;;;15.60;71.90;;;;;;4205684;28;20055;-45
2024/02/29 07:25:57;;;;;;;7.78;6.10;;;15.60;72.10;;;;;;4235174;27;20469;-44
2024/02/29 07:28:40;;;;;;;7.10;5.93;;;15.60;71.90;;;;;;4225610;27;20058;-43
2024/02/29 07:31:21;;;;;;;9.30;5.90;;;15.60;71.60;;;;;;4237041;27;20613;-43
2024/02/29 07:34:02;;;;;;;8.70;5.88;;;15.70;71.40;;;;;;4200669;28;20482;-42
2024/02/29 07:36:43;;;;;;;7.93;6.05;;;15.70;71.50;;;;;;4188897;28;20559;-43
2024/02/29 07:39:24;;;;;;;8.50;5.65;;;15.70;71.50;;;;;;4214815;28;20104;-50
2024/02/29 07:42:06;;;;;;;7.68;5.80;;;15.80;71.00;;;;;;4222215;28;20498;-46
2024/02/29 07:44:48;;;;;;;7.47;5.45;;;15.80;70.80;;;;;;4222815;27;20411;-49
2024/02/29 07:47:29;;;;;;;7.60;5.20;;;15.90;70.60;;;;;;4221554;28;20578;-44
2024/02/29 07:50:10;;;;;;;10.50;6.32;;;15.90;71.80;;;;;;4206250;28;20050;-46
2024/02/29 07:52:51;;;;;;;11.05;5.38;;;16.00;70.80;;;;;;4209624;28;20121;-43
2024/02/29 07:55:32;;;;;;;6.55;5.82;;;16.10;70.10;;;;;;4196984;28;20059;-46
2024/02/29 07:58:13;;;;;;;7.05;5.22;;;16.10;69.90;;;;;;4190300;28;20591;-46
2024/02/29 08:00:56;;;;;;;6.43;5.38;;;16.10;69.70;;;;;;4192311;28;20423;-43
2024/02/29 08:03:38;;;;;;;8.57;5.63;;;16.20;69.80;;;;;;4192053;28;20488;-42
2024/02/29 08:06:19;;;;;;;6.40;5.35;;;16.20;70.20;;;;;;4188862;28;20047;-48
2024/02/29 08:09:00;;;;;;;6.75;5.32;;;16.30;69.90;;;;;;4190458;28;20476;-44
2024/02/29 08:11:41;;;;;;;6.40;5.25;;;16.30;69.20;;;;;;4209884;27;20055;-44
2024/02/29 08:14:22;;;;;;;6.95;5.30;;;16.30;68.90;;;;;;4204946;28;20507;-42
2024/02/29 08:17:05;;;;;;;6.20;5.60;;;16.30;69.30;;;;;;4220821;27;20166;-45
2024/02/29 08:19:47;;;;;;;6.13;5.00;;;16.30;69.30;;;;;;4220056;28;20047;-43
2024/02/29 08:22:28;;;;;;;7.53;5.68;;;16.30;69.20;;;;;;4235562;27;20073;-47
2024/02/29 08:25:10;;;;;;;7.30;4.88;;;16.30;69.70;;;;;;4239294;27;20407;-48
2024/02/29 08:27:51;;;;;;;7.07;4.88;;;16.30;69.30;;;;;;4224389;27;20066;-49
2024/02/29 08:30:32;;;;;;;;;;;16.20;69.40;;;;;;4237890;27;20490;-43
2024/02/29 08:33:15;;;;;;;6.22;5.03;;;16.20;69.70;;;;;;4221620;27;19931;-46
2024/02/29 08:35:56;;;;;;;5.60;5.10;;;16.20;69.60;;;;;;4220713;28;20047;-43
2024/02/29 08:38:38;;;;;;;;;;;16.20;69.40;;;;;;4188586;28;20117;-44
2024/02/29 08:41:18;;;;;;;6.95;5.22;;;16.30;69.50;;;;;;4187111;28;20006;-44
2024/02/29 08:43:59;;;;;;;7.07;5.32;;;16.30;69.80;;;;;;4190082;28;20052;-44
2024/02/29 08:46:41;;;;;;;6.32;4.93;;;16.20;69.70;;;;;;4211919;27;20066;-47
2024/02/29 08:49:23;;;;;;;7.10;5.10;;;16.20;69.90;;;;;;4219754;27;20392;-46
2024/02/29 08:52:07;;;;;;;6.93;5.30;;;16.30;69.60;;;;;;4221767;27;20050;-46
2024/02/29 08:54:48;;;;;;;8.38;5.75;;;16.30;69.60;;;;;;4221573;27;20050;-44
2024/02/29 08:57:30;;;;;;;8.00;4.90;;;16.20;69.30;;;;;;4220720;27;20070;-44
2024/02/29 09:00:12;;;;;;;5.72;4.90;;;16.20;69.30;;;;;;4214853;27;20132;-43
2024/02/29 09:02:53;;;;;;;6.80;4.82;;;16.10;69.60;;;;;;4206873;28;20384;-45
2024/02/29 09:05:35;;;;;;;6.43;4.80;;;16.10;70.00;;;;;;4229907;27;20054;-43
2024/02/29 09:08:17;;;;;;;6.13;4.95;;;16.10;70.30;;;;;;4238346;27;20062;-43
2024/02/29 09:11:00;;;;;;;6.53;4.70;;;16.10;70.40;;;;;;4236952;27;20046;-49
2024/02/29 09:13:41;;;;;;;8.30;5.35;;;16.10;70.10;;;;;;4237681;27;20402;-46
2024/02/29 09:16:22;;;;;;;5.88;5.10;;;16.10;69.60;;;;;;4231778;27;20051;-44
2024/02/29 09:19:03;;;;;;;10.15;5.72;;;16.20;69.70;;;;;;4234207;27;20130;-44
2024/02/29 09:21:45;;;;;;;5.55;4.78;;;16.20;69.60;;;;;;4222537;27;20046;-43
2024/02/29 09:24:26;;;;;;;8.25;5.65;;;16.20;69.50;;;;;;4229063;27;20055;-42
2024/02/29 09:27:07;;;;;;;7.90;5.50;;;16.20;69.30;;;;;;4211455;27;20435;-45
2024/02/29 09:29:48;;;;;;;7.47;6.15;;;16.20;69.50;;;;;;4201993;28;20129;-44
2024/02/29 09:32:30;;;;;;;6.88;5.18;;;16.20;69.70;;;;;;4205731;28;20078;-42
2024/02/29 09:35:11;;;;;;;8.80;5.97;;;16.20;69.50;;;;;;4203027;28;20178;-42
2024/02/29 09:37:54;;;;;;;8.57;6.18;;;16.20;69.60;;;;;;4197635;28;20756;-44
2024/02/29 09:40:35;;;;;;;10.55;6.03;;;16.20;69.70;;;;;;4220061;28;20050;-42
2024/02/29 09:43:22;;;;;;;9.15;5.22;;;16.10;69.60;;;;;;4220509;28;20775;-45
2024/02/29 09:46:03;;;;;;;;;;;16.10;70.00;;;;;;4216514;27;20192;-46
2024/02/29 09:48:44;;;;;;;7.17;5.80;;;16.00;70.30;;;;;;4202648;28;19969;-48
2024/02/29 09:51:26;;;;;;;8.43;5.50;;;16.10;70.60;;;;;;4219431;28;20284;-49
2024/02/29 09:54:16;;;;;;;7.38;6.03;;;16.10;70.30;;;;;;4212164;27;20292;-43
2024/02/29 09:56:57;;;;;;;8.82;5.82;;;16.10;70.20;;;;;;4208159;27;20059;-46
2024/02/29 09:59:40;;;;;;;8.88;5.90;;;16.10;70.00;;;;;;4188432;28;20052;-44
2024/02/29 10:02:21;;;;;;;8.68;5.45;;;16.10;70.10;;;;;;4194311;28;20052;-44
2024/02/29 10:05:02;;;;;;;7.97;5.93;;;16.10;70.30;;;;;;4210509;28;20049;-43
2024/02/29 10:07:47;;;;;;;6.07;4.97;;;16.10;70.30;;;;;;4211434;27;20526;-47
2024/02/29 10:10:29;;;;;;;6.63;5.63;;;16.10;70.10;;;;;;4194297;28;20059;-43
2024/02/29 10:13:11;;;;;;;7.20;5.78;;;16.10;70.10;;;;;;4218920;27;20141;-45
2024/02/29 10:15:52;;;;;;;7.97;5.53;;;16.00;70.40;;;;;;4192050;28;20387;-48
2024/02/29 10:18:33;;;;;;;7.65;5.63;;;16.00;70.50;;;;;;4191747;28;20086;-42
2024/02/29 10:21:15;;;;;;;6.85;5.80;;;15.90;70.60;;;;;;4195572;28;20499;-43
2024/02/29 10:23:58;;;;;;;10.48;6.00;;;15.90;70.90;;;;;;4205929;28;20054;-48
2024/02/29 10:26:40;;;;;;;6.03;5.43;;;15.90;70.90;;;;;;4218775;27;20054;-46
2024/02/29 10:29:21;;;;;;;7.60;6.00;;;15.80;71.20;;;;;;4205830;28;20670;-45
2024/02/29 10:32:03;;;;;;;7.00;5.63;;;15.70;71.30;;;;;;4213696;27;20054;-43
2024/02/29 10:34:44;;;;;;;9.48;6.13;;;15.70;71.60;;;;;;4212731;27;20050;-46
2024/02/29 10:37:26;;;;;;;7.30;6.13;;;15.60;71.80;;;;;;4212427;27;20075;-47
2024/02/29 10:40:09;;;;;;;7.97;5.55;;;15.50;72.20;;;;;;4211669;27;20098;-42
2024/02/29 10:42:54;;;;;;;8.90;5.68;;;15.50;72.50;;;;;;4217937;28;20124;-45
2024/02/29 10:45:45;;;;;;;7.22;5.70;;;15.50;72.80;;;;;;4223530;27;20131;-45
2024/02/29 10:48:37;;;;;;;9.27;6.05;;;15.50;73.00;;;;;;4202196;28;20185;-43
2024/02/29 10:51:28;;;;;;;8.57;6.53;;;15.50;72.80;;;;;;4190784;28;20068;-43
2024/02/29 10:54:15;;;;;;;8.10;5.77;;;15.60;72.70;;;;;;4190055;28;20059;-42
2024/02/29 10:56:57;;;;;;;7.57;5.80;;;15.60;72.70;;;;;;4206384;28;20109;-45
2024/02/29 10:59:42;;;;;;;6.97;6.15;;;15.60;72.80;;;;;;4200882;28;20055;-44
2024/02/29 11:02:23;;;;;;;9.15;6.18;;;15.60;72.70;;;;;;4206525;28;20059;-45
2024/02/29 11:05:04;;;;;;;;;;;15.60;72.80;;;;;;4206403;28;20055;-41
2024/02/29 11:07:46;;;;;;;9.23;6.63;;;15.70;73.00;;;;;;4222853;27;19934;-45
2024/02/29 11:10:28;;;;;;;7.15;5.53;;;15.60;73.30;;;;;;4223236;28;20049;-45
2024/02/29 11:13:09;;;;;;;12.10;6.43;;;15.60;73.40;;;;;;4207357;28;20075;-41
2024/02/29 11:15:53;;;;;;;9.40;6.65;;;15.70;73.80;;;;;;4219235;27;20159;-42
2024/02/29 11:18:36;;;;;;;9.73;6.60;;;15.70;73.80;;;;;;4217061;27;20051;-45
2024/02/29 11:21:28;;;;;;;9.20;6.88;;;15.80;74.60;;;;;;4198654;28;20050;-47
2024/02/29 11:24:10;;;;;;;;;;;15.80;73.60;;;;;;4217308;27;20099;-46
2024/02/29 11:26:55;;;;;;;9.20;6.90;;;15.80;73.60;;;;;;4212956;27;19935;-41
2024/02/29 11:29:37;;;;;;;10.90;6.47;;;15.80;73.70;;;;;;4205996;27;20572;-46
2024/02/29 11:32:29;;;;;;;11.88;7.93;;;15.80;73.70;;;;;;4218659;27;20193;-47
2024/02/29 11:35:10;;;;;;;9.73;6.43;;;15.70;73.90;;;;;;4219430;28;20582;-42
2024/02/29 11:37:54;;;;;;;10.10;7.25;;;15.70;74.10;;;;;;4229806;27;20462;-45
2024/02/29 11:40:36;;;;;;;10.60;6.88;;;15.70;74.20;;;;;;4234398;27;20530;-47
2024/02/29 11:43:18;;;;;;;12.25;7.38;;;15.60;74.50;;;;;;4219924;28;20055;-45
2024/02/29 11:46:08;;;;;;;9.60;7.05;;;15.60;74.50;;;;;;4205918;28;20511;-45
2024/02/29 11:48:52;;;;;;;11.40;6.88;;;15.50;75.00;;;;;;4222299;27;20054;-41
2024/02/29 11:51:35;;;;;;;10.55;6.90;;;15.50;75.00;;;;;;4222173;27;20185;-41
2024/02/29 11:54:17;;;;;;;9.80;7.20;;;15.50;75.00;;;;;;4205312;28;20054;-41
2024/02/29 11:56:58;;;;;;;12.10;7.47;;;15.50;75.40;;;;;;4190283;28;20546;-45
2024/02/29 11:59:39;;;;;;;12.25;7.80;;;15.40;75.60;;;;;;4189521;27;20056;-45
2024/02/29 12:02:20;;;;;;;11.02;7.65;;;15.40;75.70;;;;;;4231120;27;20057;-42
2024/02/29 12:05:03;;;;;;;10.20;7.07;;;15.40;76.00;;;;;;4227276;27;20169;-41
2024/02/29 12:07:45;;;;;;;12.27;8.05;;;15.40;75.80;;;;;;4201694;28;20388;-41
2024/02/29 12:10:26;;;;;;;;;;;15.40;76.00;;;;;;4219299;27;20055;-42
2024/02/29 12:13:08;;;;;;;;;;;15.40;75.90;;;;;;4204502;28;19927;-42
2024/02/29 12:15:49;;;;;;;11.27;6.75;;;15.50;76.60;;;;;;4188467;28;19931;-41
2024/02/29 12:18:35;;;;;;;9.05;7.68;;;15.60;76.30;;;;;;4189443;27;20059;-45
2024/02/29 12:21:17;;;;;;;10.43;7.07;;;15.70;75.90;;;;;;4188640;28;20059;-46
2024/02/29 12:23:58;;;;;;;10.75;7.35;;;15.70;75.50;;;;;;4196617;28;20714;-45
2024/02/29 12:26:42;;;;;;;10.70;6.93;;;15.80;75.40;;;;;;4189829;28;20229;-41
2024/02/29 12:29:23;;;;;;;11.30;7.63;;;15.70;75.20;;;;;;4188340;28;20052;-41
2024/02/29 12:32:05;;;;;;;9.18;7.32;;;15.70;75.10;;;;;;4195780;28;20071;-49
2024/02/29 12:34:47;;;;;;;10.60;7.30;;;15.70;75.30;;;;;;4203357;28;20225;-42
2024/02/29 12:37:30;;;;;;;13.05;7.70;;;15.70;75.40;;;;;;4217971;27;20058;-48
2024/02/29 12:40:12;;;;;;;11.45;7.40;;;15.70;75.50;;;;;;4189925;28;20058;-43
2024/02/29 12:42:54;;;;;;;11.95;7.75;;;15.70;75.60;;;;;;4208068;28;20407;-47
2024/02/29 12:45:35;;;;;;;11.20;7.47;;;15.70;75.70;;;;;;4204902;28;20043;-45
2024/02/29 12:48:16;;;;;;;12.82;6.70;;;15.70;75.60;;;;;;4202633;28;20051;-47
2024/02/29 12:50:57;;;;;;;9.88;6.95;;;15.70;75.60;;;;;;4203766;27;20063;-42
2024/02/29 12:53:40;;;;;;;8.93;6.80;;;15.70;75.50;;;;;;4217739;27;20505;-43
2024/02/29 12:56:22;;;;;;;9.25;6.65;;;15.80;75.50;;;;;;4230403;27;20192;-43
2024/02/29 12:59:03;;;;;;;11.30;7.22;;;15.80;75.50;;;;;;4236339;27;20058;-43
2024/02/29 13:01:44;;;;;;;9.85;6.68;;;15.80;75.40;;;;;;4187457;28;20504;-46
2024/02/29 13:04:26;;;;;;;9.38;6.53;;;15.80;75.30;;;;;;4196510;28;20055;-46
2024/02/29 13:07:07;;;;;;;8.85;6.75;;;15.80;75.60;;;;;;4206421;27;20568;-41
2024/02/29 13:09:49;;;;;;;8.02;5.97;;;15.80;75.50;;;;;;4203405;28;20340;-41
2024/02/29 13:12:30;;;;;;;7.55;6.03;;;15.90;75.70;;;;;;4205407;28;20055;-41
2024/02/29 13:15:12;;;;;;;8.65;6.57;;;15.90;75.70;;;;;;4223549;27;20103;-40
2024/02/29 13:17:53;;;;;;;9.57;7.43;;;15.90;75.60;;;;;;4194106;27;20055;-41
2024/02/29 13:20:34;;;;;;;9.48;6.50;;;15.90;75.40;;;;;;4194666;28;20064;-44
2024/02/29 13:23:16;;;;;;;10.05;6.72;;;15.90;75.40;;;;;;4173315;28;20612;-44
2024/02/29 13:25:59;;;;;;;6.43;5.53;;;15.90;75.60;;;;;;4215332;28;20058;-42
2024/02/29 13:28:40;;;;;;;11.23;6.35;;;15.80;75.60;;;;;;4214989;27;20059;-41
2024/02/29 13:31:24;;;;;;;10.38;6.63;;;15.80;75.60;;;;;;4187618;28;20500;-43
2024/02/29 13:34:05;;;;;;;9.88;6.57;;;15.80;75.80;;;;;;4191192;28;20051;-42
2024/02/29 13:36:46;;;;;;;8.45;6.75;;;15.70;75.80;;;;;;4200194;28;20050;-46
2024/02/29 13:39:27;;;;;;;10.15;6.90;;;15.70;76.10;;;;;;4205376;27;20051;-45
2024/02/29 13:42:09;;;;;;;9.65;6.70;;;15.60;76.10;;;;;;4203571;28;20051;-44
2024/02/29 13:44:51;;;;;;;7.85;6.55;;;15.60;76.50;;;;;;4208594;27;20170;-45
2024/02/29 13:47:31;;;;;;;9.65;7.15;;;15.50;76.50;;;;;;4203413;28;20081;-42
2024/02/29 13:50:12;;;;;;;9.20;6.60;;;15.50;76.80;;;;;;4206552;28;20145;-42
2024/02/29 13:52:55;;;;;;;6.75;5.63;;;15.50;76.80;;;;;;4229064;27;20059;-44
2024/02/29 13:55:37;;;;;;;9.50;6.57;;;15.60;76.90;;;;;;4193455;28;20093;-45
2024/02/29 13:58:19;;;;;;;9.00;6.68;;;15.50;77.00;;;;;;4202660;28;20523;-42